createdAt,value
2019-04-16T00:03:31.761Z,23.23
2019-04-16T00:06:24.149Z,24.93
2019-04-16T00:09:07.212Z,24.40
2019-04-16T00:12:03.065Z,27.87
2019-04-16T00:14:49.738Z,22.77
2019-04-16T00:17:52.259Z,25.57
2019-04-16T00:20:47.866Z,23.43
2019-04-16T00:23:40.810Z,23.20
2019-04-16T00:26:30.186Z,18.93
2019-04-16T00:32:37.928Z,20.37
2019-04-16T00:35:27.599Z,19.10
2019-04-16T00:38:14.260Z,22.50
2019-04-16T00:41:18.514Z,23.23
2019-04-16T00:47:40.241Z,19.57
2019-04-16T00:50:41.989Z,29.17
2019-04-16T00:56:34.781Z,26.13
2019-04-16T00:59:34.915Z,27.90
2019-04-16T01:02:53.510Z,29.37
2019-04-16T01:05:51.443Z,25.70
2019-04-16T01:08:54.749Z,24.33
2019-04-16T01:11:56.831Z,21.33
2019-04-16T01:14:33.417Z,20.37
2019-04-16T01:17:29.799Z,25.37
2019-04-16T01:20:30.296Z,20.37
2019-04-16T01:23:31.236Z,25.17
2019-04-16T01:26:21.034Z,21.80
2019-04-16T01:29:14.345Z,24.30
2019-04-16T01:32:20.306Z,23.90
2019-04-16T01:35:23.643Z,19.47
2019-04-16T01:38:19.266Z,20.83
2019-04-16T01:41:04.120Z,22.70
2019-04-16T01:44:08.507Z,23.00
2019-04-16T01:47:03.789Z,21.67
2019-04-16T01:49:49.917Z,20.37
2019-04-16T01:52:59.395Z,21.73
2019-04-16T01:55:49.102Z,22.77
2019-04-16T01:58:33.557Z,22.57
2019-04-16T02:01:27.959Z,20.13
2019-04-16T02:04:22.300Z,22.13
2019-04-16T02:07:07.510Z,24.23
2019-04-16T02:10:06.422Z,20.47
2019-04-16T02:19:16.739Z,20.60
2019-04-16T02:21:54.412Z,22.67
2019-04-16T02:24:28.668Z,25.47
2019-04-16T02:27:14.037Z,22.90
2019-04-16T02:29:58.604Z,21.67
2019-04-16T02:32:52.123Z,22.20
2019-04-16T02:36:02.656Z,26.93
2019-04-16T02:39:03.666Z,24.33
2019-04-16T02:41:58.458Z,22.47
2019-04-16T02:44:57.688Z,18.70
2019-04-16T02:47:43.356Z,19.13
2019-04-16T02:51:04.922Z,20.87
2019-04-16T02:54:03.699Z,23.20
2019-04-16T02:57:26.303Z,22.07
2019-04-16T02:59:59.665Z,18.97
2019-04-16T03:02:55.530Z,27.43
2019-04-16T03:06:37.751Z,22.57
2019-04-16T03:09:27.028Z,26.90
2019-04-16T03:12:28.457Z,24.40
2019-04-16T03:18:22.517Z,23.83
2019-04-16T03:21:06.970Z,18.10
2019-04-16T03:23:55.517Z,19.03
2019-04-16T03:26:40.542Z,21.63
2019-04-16T03:32:57.166Z,21.23
2019-04-16T03:35:41.826Z,21.63
2019-04-16T03:38:38.706Z,20.87
2019-04-16T03:41:44.954Z,23.20
2019-04-16T03:44:45.281Z,28.63
2019-04-16T03:47:41.387Z,25.10
2019-04-16T03:50:33.925Z,25.43
2019-04-16T03:53:27.053Z,23.13
2019-04-16T03:56:18.521Z,30.07
2019-04-16T03:59:12.551Z,22.07
2019-04-16T04:02:09.846Z,19.97
2019-04-16T04:05:06.481Z,19.60
2019-04-16T04:07:49.252Z,19.77
2019-04-16T04:13:55.999Z,20.07
2019-04-16T04:16:39.398Z,20.83
2019-04-16T04:22:28.752Z,19.73
2019-04-16T04:25:24.036Z,22.50
2019-04-16T04:28:09.290Z,20.50
2019-04-16T04:31:23.778Z,18.37
2019-04-16T04:34:30.604Z,25.00
2019-04-16T04:37:33.220Z,24.00
2019-04-16T04:40:28.591Z,23.13
2019-04-16T04:43:29.338Z,21.57
2019-04-16T04:46:32.663Z,24.80
2019-04-16T04:49:30.094Z,16.37
2019-04-16T04:52:28.665Z,19.00
2019-04-16T04:55:20.406Z,27.13
2019-04-16T04:58:02.808Z,23.10
2019-04-16T05:00:59.231Z,20.83
2019-04-16T05:04:18.958Z,31.53
2019-04-16T05:06:57.242Z,22.00
2019-04-16T05:09:47.467Z,17.80
2019-04-16T05:12:53.716Z,22.70
2019-04-16T05:15:53.031Z,18.67
2019-04-16T05:18:43.309Z,16.47
2019-04-16T05:21:27.749Z,16.87
2019-04-16T05:24:14.658Z,16.13
2019-04-16T05:33:41.718Z,22.27
2019-04-16T05:36:31.628Z,16.10
2019-04-16T05:39:32.281Z,18.00
2019-04-16T05:42:16.971Z,19.87
2019-04-16T05:48:25.559Z,18.67
2019-04-16T05:51:14.528Z,20.53
2019-04-16T05:53:59.502Z,18.10
2019-04-16T05:56:47.952Z,23.57
2019-04-16T05:59:45.676Z,21.70
2019-04-16T06:02:50.514Z,22.50
2019-04-16T06:05:56.303Z,25.60
2019-04-16T06:09:04.483Z,19.03
2019-04-16T06:12:25.082Z,21.33
2019-04-16T06:15:15.457Z,16.97
2019-04-16T06:18:12.319Z,18.03
2019-04-16T06:21:34.811Z,20.27
2019-04-16T06:24:26.660Z,21.10
2019-04-16T06:30:44.813Z,28.40
2019-04-16T06:33:52.675Z,23.53
2019-04-16T06:37:12.783Z,19.90
2019-04-16T06:43:27.490Z,28.90
2019-04-16T06:46:59.963Z,16.43
2019-04-16T06:50:11.220Z,16.33
2019-04-16T06:53:19.879Z,18.97
2019-04-16T06:56:32.436Z,25.37
2019-04-16T06:59:49.062Z,16.57
2019-04-16T07:03:02.274Z,20.27
2019-04-16T07:06:09.233Z,16.13
2019-04-16T07:09:25.776Z,17.23
2019-04-16T07:12:34.875Z,18.77
2019-04-16T07:15:14.382Z,17.97
2019-04-16T07:18:06.656Z,20.97
2019-04-16T07:20:53.518Z,13.17
2019-04-16T07:23:37.967Z,15.50
2019-04-16T07:26:39.499Z,22.30
2019-04-16T07:29:40.862Z,23.83
2019-04-16T07:32:46.982Z,14.13
2019-04-16T07:35:37.033Z,19.50
2019-04-16T07:38:51.384Z,15.93
2019-04-16T07:41:45.095Z,14.07
2019-04-16T07:44:39.391Z,18.87
2019-04-16T07:47:48.284Z,18.23
2019-04-16T07:51:21.940Z,16.63
2019-04-16T07:57:36.595Z,23.37
2019-04-16T08:00:41.311Z,20.57
2019-04-16T08:03:31.996Z,18.53
2019-04-16T08:06:25.665Z,17.40
2019-04-16T08:09:11.941Z,19.43
2019-04-16T08:11:55.733Z,17.40
2019-04-16T08:15:13.291Z,16.80
2019-04-16T08:18:04.251Z,18.03
2019-04-16T08:21:11.875Z,21.10
2019-04-16T08:24:01.144Z,17.27
2019-04-16T08:26:50.823Z,14.17
2019-04-16T08:29:47.708Z,20.27
2019-04-16T08:32:52.068Z,22.73
2019-04-16T08:35:36.808Z,15.23
2019-04-16T08:38:39.483Z,16.93
2019-04-16T08:41:52.349Z,23.57
2019-04-16T08:45:01.512Z,20.77
2019-04-16T08:48:04.033Z,18.20
2019-04-16T08:51:14.118Z,17.20
2019-04-16T08:54:03.992Z,18.53
2019-04-16T08:57:19.335Z,17.37
2019-04-16T09:00:04.782Z,22.97
2019-04-16T09:02:52.028Z,18.57
2019-04-16T09:05:48.797Z,23.17
2019-04-16T09:09:12.439Z,21.70
2019-04-16T09:12:00.126Z,27.63
2019-04-16T09:15:16.587Z,24.10
2019-04-16T09:18:37.204Z,18.87
2019-04-16T09:21:44.366Z,16.70
2019-04-16T09:24:43.264Z,21.93
2019-04-16T09:27:52.178Z,22.57
2019-04-16T09:30:52.932Z,18.00
2019-04-16T09:33:59.024Z,21.13
2019-04-16T09:37:13.058Z,17.27
2019-04-16T09:40:40.886Z,17.63
2019-04-16T09:43:29.323Z,21.30
2019-04-16T09:49:51.078Z,21.20
2019-04-16T09:52:56.555Z,19.20
2019-04-16T09:56:14.874Z,17.57
2019-04-16T10:02:37.624Z,22.23
2019-04-16T10:05:49.987Z,24.27
2019-04-16T10:08:36.283Z,23.27
2019-04-16T10:11:40.325Z,15.70
2019-04-16T10:14:30.066Z,23.27
2019-04-16T10:17:22.735Z,16.83
2019-04-16T10:23:44.792Z,26.27
2019-04-16T10:26:42.390Z,17.60
2019-04-16T10:30:15.784Z,26.47
2019-04-16T10:32:44.160Z,19.43
2019-04-16T10:35:30.134Z,27.93
2019-04-16T10:38:51.752Z,25.93
2019-04-16T10:42:07.772Z,23.13
2019-04-16T10:45:45.991Z,27.97
2019-04-16T10:48:59.278Z,22.60
2019-04-16T10:52:01.127Z,19.83
2019-04-16T11:01:59.184Z,24.90
2019-04-16T11:05:27.647Z,20.17
2019-04-16T11:08:18.373Z,22.70
2019-04-16T11:11:15.056Z,25.23
2019-04-16T11:14:00.544Z,26.83
2019-04-16T11:17:02.804Z,24.07
2019-04-16T11:19:55.887Z,20.00
2019-04-16T11:22:46.882Z,21.57
2019-04-16T11:26:10.989Z,25.77
2019-04-16T11:29:13.265Z,23.23
2019-04-16T11:32:14.982Z,23.27
2019-04-16T11:35:08.713Z,29.03
2019-04-16T11:40:54.276Z,29.07
2019-04-16T11:43:52.844Z,21.73
2019-04-16T11:50:10.279Z,27.57
2019-04-16T11:53:09.239Z,23.97
2019-04-16T11:56:22.381Z,24.63
2019-04-16T11:59:07.894Z,25.60
2019-04-16T12:02:22.035Z,23.37
2019-04-16T12:05:28.139Z,24.83
2019-04-16T12:08:24.611Z,23.93
2019-04-16T12:11:50.128Z,25.70
2019-04-16T12:14:52.359Z,23.73
2019-04-16T12:18:07.458Z,24.30
2019-04-16T12:21:14.332Z,26.13
2019-04-16T12:24:41.659Z,25.83
2019-04-16T12:27:51.145Z,24.07
2019-04-16T12:31:17.163Z,32.13
2019-04-16T12:34:38.249Z,25.53
2019-04-16T12:37:40.969Z,25.03
2019-04-16T12:40:42.615Z,28.93
2019-04-16T12:44:10.231Z,28.07
2019-04-16T12:47:12.533Z,27.10
2019-04-16T12:50:23.566Z,25.57
2019-04-16T12:56:53.452Z,27.17
2019-04-16T13:00:31.811Z,26.73
2019-04-16T13:03:33.334Z,29.47
2019-04-16T13:06:58.445Z,24.67
2019-04-16T13:10:12.230Z,26.30
2019-04-16T13:13:44.448Z,27.47
2019-04-16T13:17:05.050Z,30.73
2019-04-16T13:20:29.499Z,31.73
2019-04-16T13:23:41.786Z,29.27
2019-04-16T13:27:14.546Z,30.87
2019-04-16T13:30:14.279Z,28.30
2019-04-16T13:33:29.390Z,28.27
2019-04-16T13:36:26.496Z,29.93
2019-04-16T13:39:29.825Z,24.80
2019-04-16T13:42:48.809Z,27.30
2019-04-16T13:46:00.705Z,24.90
2019-04-16T13:49:31.359Z,33.53
2019-04-16T13:52:31.245Z,33.47
2019-04-16T13:55:50.539Z,31.93
2019-04-16T13:58:44.504Z,29.43
2019-04-16T14:02:02.027Z,38.40
2019-04-16T14:05:11.273Z,38.47
2019-04-16T14:08:02.619Z,31.20
2019-04-16T14:11:01.123Z,28.57
2019-04-16T14:17:21.861Z,28.83
2019-04-16T14:20:19.281Z,37.93
2019-04-16T14:23:11.629Z,33.83
2019-04-16T14:26:31.834Z,35.17
2019-04-16T14:29:38.760Z,30.27
2019-04-16T14:32:14.949Z,31.43
2019-04-16T14:35:32.264Z,30.23
2019-04-16T14:38:38.949Z,32.20
2019-04-16T14:41:48.920Z,28.50
2019-04-16T14:48:16.459Z,31.97
2019-04-16T14:57:53.683Z,31.83
2019-04-16T15:01:14.705Z,29.43
2019-04-16T15:04:29.075Z,36.50
2019-04-16T15:10:44.345Z,28.17
2019-04-16T15:13:51.791Z,29.17
2019-04-16T15:17:03.695Z,31.97
2019-04-16T15:20:09.365Z,35.60
2019-04-16T15:26:52.784Z,30.23
2019-04-16T15:30:03.920Z,30.47
2019-04-16T15:33:38.766Z,35.23
2019-04-16T15:36:58.808Z,31.80
2019-04-16T15:40:12.467Z,28.47
2019-04-16T15:43:36.606Z,29.07
2019-04-16T15:47:18.789Z,29.83
2019-04-16T15:50:44.464Z,31.33
2019-04-16T15:53:42.316Z,32.67
2019-04-16T15:57:07.993Z,31.33
2019-04-16T16:00:21.761Z,33.87
2019-04-16T16:07:14.240Z,34.10
2019-04-16T16:10:24.211Z,32.27
2019-04-16T16:13:35.275Z,31.37
2019-04-16T16:16:41.888Z,30.63
2019-04-16T16:19:24.242Z,31.50
2019-04-16T16:22:22.727Z,32.00
2019-04-16T16:25:20.191Z,29.00
2019-04-16T16:28:22.808Z,35.43
2019-04-16T16:31:17.897Z,31.63
2019-04-16T16:34:40.811Z,34.83
2019-04-16T16:37:23.946Z,31.30
2019-04-16T16:40:14.755Z,35.47
2019-04-16T16:43:26.302Z,30.87
2019-04-16T16:47:01.466Z,30.77
2019-04-16T16:49:50.542Z,37.40
2019-04-16T16:56:28.300Z,36.90
2019-04-16T16:59:47.929Z,31.07
2019-04-16T17:03:14.973Z,39.47
2019-04-16T17:09:11.406Z,34.90
2019-04-16T17:12:01.378Z,30.40
2019-04-16T17:15:03.977Z,34.77
2019-04-16T17:21:26.122Z,35.83
2019-04-16T17:24:17.827Z,31.77
2019-04-16T17:27:20.840Z,35.63
2019-04-16T17:30:22.175Z,35.77
2019-04-16T17:33:15.192Z,32.03
2019-04-16T17:36:20.525Z,35.57
2019-04-16T17:38:53.899Z,31.13
2019-04-16T17:41:47.217Z,32.03
2019-04-16T17:44:46.220Z,31.63
2019-04-16T17:47:55.524Z,33.33
2019-04-16T17:50:51.035Z,31.77
2019-04-16T17:53:53.229Z,31.43
2019-04-16T17:56:58.710Z,36.97
2019-04-16T17:59:44.311Z,33.67
2019-04-16T18:03:07.161Z,30.17
2019-04-16T18:09:42.755Z,31.50
2019-04-16T18:13:08.007Z,31.47
2019-04-16T18:16:09.312Z,36.53
2019-04-16T18:19:27.540Z,32.60
2019-04-16T18:22:45.038Z,38.77
2019-04-16T18:25:56.822Z,36.53
2019-04-16T18:28:41.607Z,29.30
2019-04-16T18:35:01.604Z,34.93
2019-04-16T18:38:24.341Z,33.33
2019-04-16T18:41:32.916Z,35.07
2019-04-16T18:44:56.168Z,36.83
2019-04-16T18:51:02.009Z,33.77
2019-04-16T18:56:42.850Z,34.67
2019-04-16T18:59:51.724Z,31.93
2019-04-16T19:03:03.897Z,32.47
2019-04-16T19:05:50.041Z,36.83
2019-04-16T19:08:42.053Z,32.80
2019-04-16T19:12:06.688Z,31.90
2019-04-16T19:15:18.014Z,32.07
2019-04-16T19:18:19.053Z,36.00
2019-04-16T19:20:57.419Z,36.87
2019-04-16T19:24:17.080Z,36.80
2019-04-16T19:27:22.070Z,38.93
2019-04-16T19:30:16.002Z,35.87
2019-04-16T19:33:08.707Z,41.27
2019-04-16T19:39:20.416Z,34.23
2019-04-16T19:42:03.362Z,39.27
2019-04-16T19:45:12.026Z,34.63
2019-04-16T19:48:11.343Z,34.27
2019-04-16T19:50:50.575Z,34.20
2019-04-16T19:53:44.596Z,36.03
2019-04-16T19:56:28.015Z,33.13
2019-04-16T19:59:55.502Z,31.60
2019-04-16T20:02:40.737Z,37.07
2019-04-16T20:05:36.995Z,37.33
2019-04-16T20:08:39.851Z,35.67
2019-04-16T20:11:26.238Z,34.00
2019-04-16T20:14:35.321Z,37.63
2019-04-16T20:20:38.052Z,32.50
2019-04-16T20:26:20.947Z,38.07
2019-04-16T20:29:09.077Z,32.43
2019-04-16T20:32:09.815Z,34.43
2019-04-16T20:35:09.334Z,38.50
2019-04-16T20:38:09.621Z,43.20
2019-04-16T20:41:04.301Z,32.77
2019-04-16T20:43:50.081Z,33.27
2019-04-16T20:47:08.584Z,31.43
2019-04-16T20:50:45.541Z,35.77
2019-04-16T20:53:59.767Z,33.93
2019-04-16T20:57:08.767Z,35.50
2019-04-16T21:00:29.230Z,36.67
2019-04-16T21:03:30.887Z,34.83
2019-04-16T21:06:41.249Z,35.43
2019-04-16T21:09:26.792Z,38.07
2019-04-16T21:12:37.073Z,34.97
2019-04-16T21:15:27.356Z,35.57
2019-04-16T21:18:30.856Z,35.10
2019-04-16T21:21:24.318Z,38.97
2019-04-16T21:24:20.862Z,37.10
2019-04-16T21:27:13.272Z,43.47
2019-04-16T21:30:16.042Z,34.03
2019-04-16T21:33:07.454Z,32.93
2019-04-16T21:36:06.167Z,34.63
2019-04-16T21:39:20.145Z,37.00
2019-04-16T21:42:31.617Z,37.03
2019-04-16T21:45:29.077Z,31.93
2019-04-16T21:48:23.869Z,46.60
2019-04-16T21:51:25.623Z,40.13
2019-04-16T21:54:11.037Z,38.93
2019-04-16T21:57:28.716Z,39.40
2019-04-16T22:00:52.483Z,40.83
2019-04-16T22:03:51.758Z,40.00
2019-04-16T22:06:38.066Z,38.70
2019-04-16T22:09:21.271Z,40.33
2019-04-16T22:12:47.592Z,36.53
2019-04-16T22:15:29.782Z,37.23
2019-04-16T22:18:15.853Z,36.43
2019-04-16T22:20:53.349Z,35.63
2019-04-16T22:23:57.164Z,41.30
2019-04-16T22:26:49.487Z,37.67
2019-04-16T22:29:49.160Z,34.37
2019-04-16T22:36:32.728Z,32.53
2019-04-16T22:39:40.531Z,30.77
2019-04-16T22:43:12.246Z,34.93
2019-04-16T22:46:22.162Z,34.33
2019-04-16T22:49:47.337Z,30.73
2019-04-16T22:52:34.186Z,31.57
2019-04-16T22:55:56.269Z,34.27
2019-04-16T22:58:53.040Z,28.33
2019-04-16T23:01:44.864Z,33.70
2019-04-16T23:04:38.203Z,29.57
2019-04-16T23:07:39.678Z,34.07
2019-04-16T23:10:21.175Z,35.90
2019-04-16T23:13:15.800Z,35.07
2019-04-16T23:16:02.226Z,33.80
2019-04-16T23:18:49.296Z,30.03
2019-04-16T23:21:42.565Z,29.93
2019-04-16T23:24:26.384Z,30.67
2019-04-16T23:27:28.581Z,31.93
2019-04-16T23:30:15.754Z,32.93
2019-04-16T23:33:08.334Z,32.60
2019-04-16T23:35:53.574Z,32.47
2019-04-16T23:38:43.008Z,32.50
2019-04-16T23:41:57.924Z,34.93
2019-04-16T23:45:20.272Z,28.00
2019-04-16T23:54:45.469Z,31.00
2019-04-16T23:58:07.098Z,30.70
